createdAt,value
2019-02-18T00:00:55.708Z,69.60
2019-02-18T00:03:24.155Z,69.60
2019-02-18T00:05:52.782Z,69.60
2019-02-18T00:08:21.195Z,69.80
2019-02-18T00:11:09.042Z,69.80
2019-02-18T00:13:37.944Z,69.70
2019-02-18T00:16:25.723Z,69.80
2019-02-18T00:18:54.150Z,69.80
2019-02-18T00:21:22.584Z,70.10
2019-02-18T00:23:51.028Z,70.20
2019-02-18T00:26:19.479Z,70.30
2019-02-18T00:28:47.896Z,70.50
2019-02-18T00:31:16.350Z,70.50
2019-02-18T00:33:44.764Z,70.60
2019-02-18T00:36:13.197Z,70.60
2019-02-18T00:38:41.698Z,70.70
2019-02-18T00:41:10.127Z,70.90
2019-02-18T00:43:38.571Z,70.70
2019-02-18T00:46:06.987Z,70.90
2019-02-18T00:48:35.472Z,71.00
2019-02-18T00:51:04.009Z,71.10
2019-02-18T00:53:32.457Z,71.20
2019-02-18T00:56:00.995Z,71.20
2019-02-18T00:58:29.419Z,71.30
2019-02-18T01:00:57.853Z,71.20
2019-02-18T01:03:26.279Z,71.10
2019-02-18T01:05:55.756Z,71.10
2019-02-18T01:08:43.639Z,71.10
2019-02-18T01:11:12.153Z,71.20
2019-02-18T01:13:40.603Z,71.30
2019-02-18T01:16:09.026Z,71.50
2019-02-18T01:18:56.871Z,71.50
2019-02-18T01:21:25.322Z,71.30
2019-02-18T01:23:53.782Z,71.50
2019-02-18T01:26:22.196Z,71.50
2019-02-18T01:29:10.046Z,71.70
2019-02-18T01:31:38.480Z,71.50
2019-02-18T01:34:06.919Z,71.70
2019-02-18T01:36:35.366Z,71.70
2019-02-18T01:39:04.529Z,71.70
2019-02-18T01:41:32.975Z,71.70
2019-02-18T01:44:01.392Z,71.80
2019-02-18T01:46:29.837Z,71.90
2019-02-18T01:48:58.251Z,71.90
2019-02-18T01:51:46.074Z,72.10
2019-02-18T01:54:14.576Z,71.90
2019-02-18T01:56:43.061Z,71.90
2019-02-18T02:02:07.148Z,71.80
2019-02-18T02:04:35.582Z,71.80
2019-02-18T02:07:04.068Z,71.90
2019-02-18T02:09:32.509Z,72.00
2019-02-18T02:12:20.290Z,71.90
2019-02-18T02:14:48.715Z,71.90
2019-02-18T02:17:17.156Z,72.10
2019-02-18T02:19:45.575Z,72.20
2019-02-18T02:22:14.107Z,72.30
2019-02-18T02:24:42.535Z,72.30
2019-02-18T02:27:10.957Z,72.30
2019-02-18T02:29:39.394Z,72.30
2019-02-18T02:32:08.221Z,72.30
2019-02-18T02:34:37.127Z,72.40
2019-02-18T02:37:05.957Z,72.00
2019-02-18T02:39:53.774Z,72.50
2019-02-18T02:42:22.279Z,72.40
2019-02-18T02:44:50.700Z,72.50
2019-02-18T02:47:19.155Z,72.50
2019-02-18T02:49:47.571Z,72.50
2019-02-18T02:52:16.012Z,72.60
2019-02-18T02:54:44.443Z,72.80
2019-02-18T02:57:12.884Z,72.80
2019-02-18T02:59:41.323Z,72.80
2019-02-18T03:02:29.104Z,72.80
2019-02-18T03:04:57.556Z,72.80
2019-02-18T03:07:25.987Z,72.90
2019-02-18T03:09:54.436Z,73.00
2019-02-18T03:12:42.229Z,73.00
2019-02-18T03:15:12.375Z,72.90
2019-02-18T03:17:40.827Z,73.00
2019-02-18T03:20:10.199Z,73.00
2019-02-18T03:22:38.628Z,72.90
2019-02-18T03:25:16.127Z,72.90
2019-02-18T03:27:44.576Z,72.90
2019-02-18T03:30:41.831Z,73.00
2019-02-18T03:33:13.934Z,73.10
2019-02-18T03:35:42.559Z,73.10
2019-02-18T03:38:10.978Z,73.10
2019-02-18T03:40:39.405Z,73.10
2019-02-18T03:43:07.921Z,73.20
2019-02-18T03:45:36.350Z,73.00
2019-02-18T03:48:04.760Z,73.10
2019-02-18T03:50:33.204Z,73.20
2019-02-18T03:53:01.627Z,73.00
2019-02-18T03:55:30.175Z,73.00
2019-02-18T03:57:58.700Z,73.00
2019-02-18T04:00:27.120Z,73.20
2019-02-18T04:02:55.558Z,73.10
2019-02-18T04:05:24.053Z,73.20
2019-02-18T04:07:52.505Z,73.40
2019-02-18T04:10:20.912Z,73.40
2019-02-18T04:12:49.335Z,73.20
2019-02-18T04:15:18.055Z,73.20
2019-02-18T04:17:46.490Z,73.40
2019-02-18T04:20:14.988Z,73.50
2019-02-18T04:22:43.491Z,73.50
2019-02-18T04:25:11.940Z,73.70
2019-02-18T04:27:40.383Z,73.60
2019-02-18T04:30:13.650Z,73.70
2019-02-18T04:32:41.715Z,73.80
2019-02-18T04:35:10.219Z,73.70
2019-02-18T04:37:38.683Z,73.90
2019-02-18T04:40:08.528Z,73.90
2019-02-18T04:42:37.039Z,73.90
2019-02-18T04:45:10.183Z,74.10
2019-02-18T04:47:57.954Z,74.20
2019-02-18T04:50:26.448Z,74.10
2019-02-18T04:52:54.919Z,74.20
2019-02-18T04:55:23.396Z,74.10
2019-02-18T04:57:51.845Z,74.30
2019-02-18T05:00:20.269Z,74.20
2019-02-18T05:02:48.711Z,74.10
2019-02-18T05:05:28.989Z,74.20
2019-02-18T05:07:57.408Z,74.10
2019-02-18T05:13:21.298Z,74.40
2019-02-18T05:15:49.759Z,74.40
2019-02-18T05:18:18.240Z,75.30
2019-02-18T05:20:46.657Z,74.70
2019-02-18T05:23:34.438Z,74.70
2019-02-18T05:26:14.609Z,74.70
2019-02-18T05:28:43.103Z,74.70
2019-02-18T05:31:11.524Z,74.80
2019-02-18T05:33:45.884Z,74.80
2019-02-18T05:36:33.665Z,74.70
2019-02-18T05:39:02.189Z,74.80
2019-02-18T05:41:31.318Z,75.10
2019-02-18T05:44:00.094Z,75.30
2019-02-18T05:46:29.075Z,75.40
2019-02-18T05:48:57.526Z,75.50
2019-02-18T05:51:25.956Z,75.70
2019-02-18T05:53:54.392Z,75.90
2019-02-18T05:56:42.155Z,76.00
2019-02-18T05:59:10.603Z,76.20
2019-02-18T06:01:39.015Z,76.50
2019-02-18T06:04:07.535Z,76.70
2019-02-18T06:06:36.459Z,76.80
2019-02-18T06:09:05.402Z,77.10
2019-02-18T06:11:33.822Z,77.20
2019-02-18T06:14:02.268Z,77.30
2019-02-18T06:16:30.719Z,77.50
2019-02-18T06:19:18.483Z,77.50
2019-02-18T06:21:59.544Z,77.50
2019-02-18T06:24:27.973Z,77.60
2019-02-18T06:26:56.419Z,77.70
2019-02-18T06:29:24.838Z,77.90
2019-02-18T06:31:53.285Z,77.80
2019-02-18T06:34:22.892Z,77.90
2019-02-18T06:37:10.748Z,77.90
2019-02-18T06:39:41.793Z,78.00
2019-02-18T06:42:28.658Z,78.10
2019-02-18T06:44:58.753Z,78.10
2019-02-18T06:47:46.569Z,78.20
2019-02-18T06:50:14.988Z,78.00
2019-02-18T06:52:43.443Z,78.10
2019-02-18T06:55:13.004Z,77.90
2019-02-18T06:58:08.489Z,78.00
2019-02-18T07:00:44.365Z,78.00
2019-02-18T07:03:26.582Z,78.10
2019-02-18T07:05:59.420Z,78.10
2019-02-18T07:11:33.552Z,78.20
2019-02-18T07:14:21.303Z,78.40
2019-02-18T07:16:49.755Z,78.30
2019-02-18T07:19:37.531Z,78.40
2019-02-18T07:22:05.943Z,78.20
2019-02-18T07:24:34.407Z,78.40
2019-02-18T07:29:51.619Z,78.10
2019-02-18T07:32:20.047Z,78.10
2019-02-18T07:34:48.510Z,78.10
2019-02-18T07:37:36.293Z,78.00
2019-02-18T07:40:06.912Z,77.80
2019-02-18T07:42:35.379Z,77.70
2019-02-18T07:45:04.540Z,77.70
2019-02-18T07:47:32.979Z,77.60
2019-02-18T07:50:01.482Z,77.50
2019-02-18T07:52:29.890Z,77.30
2019-02-18T07:55:17.696Z,77.20
2019-02-18T07:57:46.110Z,77.10
2019-02-18T08:00:33.928Z,77.00
2019-02-18T08:03:02.343Z,76.80
2019-02-18T08:05:30.795Z,76.90
2019-02-18T08:07:59.208Z,76.90
2019-02-18T08:10:28.767Z,77.10
2019-02-18T08:13:09.805Z,76.80
2019-02-18T08:15:38.319Z,76.60
2019-02-18T08:18:06.801Z,76.60
2019-02-18T08:20:54.616Z,76.50
2019-02-18T08:23:23.135Z,76.30
2019-02-18T08:26:10.888Z,76.40
2019-02-18T08:28:39.341Z,76.30
2019-02-18T08:31:07.752Z,77.10
2019-02-18T08:33:36.201Z,76.30
2019-02-18T08:36:04.612Z,76.20
2019-02-18T08:38:33.055Z,76.20
2019-02-18T08:41:01.504Z,76.00
2019-02-18T08:43:29.948Z,76.00
2019-02-18T08:45:58.391Z,76.00
2019-02-18T08:48:26.809Z,76.10
2019-02-18T08:50:55.238Z,76.00
2019-02-18T08:56:37.924Z,75.70
2019-02-18T08:59:06.435Z,75.70
2019-02-18T09:01:34.849Z,75.90
2019-02-18T09:04:03.283Z,76.00
2019-02-18T09:06:31.738Z,76.30
2019-02-18T09:09:00.169Z,76.30
2019-02-18T09:11:28.588Z,76.30
2019-02-18T09:13:59.408Z,76.40
2019-02-18T09:16:27.855Z,76.40
2019-02-18T09:18:56.374Z,76.40
2019-02-18T09:21:26.175Z,76.50
2019-02-18T09:23:56.266Z,76.60
2019-02-18T09:26:24.673Z,76.60
2019-02-18T09:28:53.144Z,76.50
2019-02-18T09:31:23.233Z,76.70
2019-02-18T09:33:51.698Z,77.50
2019-02-18T09:36:21.426Z,76.50
2019-02-18T09:38:51.554Z,76.60
2019-02-18T09:41:20.076Z,76.40
2019-02-18T09:43:48.592Z,76.50
2019-02-18T09:46:17.032Z,76.60
2019-02-18T09:48:45.443Z,76.50
2019-02-18T09:51:13.884Z,76.40
2019-02-18T09:53:42.306Z,76.20
2019-02-18T09:56:10.751Z,76.30
2019-02-18T09:58:39.154Z,76.50
2019-02-18T10:01:07.600Z,76.50
2019-02-18T10:03:36.020Z,76.50
2019-02-18T10:06:04.470Z,76.40
2019-02-18T10:08:32.917Z,76.40
2019-02-18T10:11:20.682Z,76.30
2019-02-18T10:13:49.123Z,76.10
2019-02-18T10:16:36.911Z,76.20
2019-02-18T10:19:05.351Z,76.00
2019-02-18T10:21:33.772Z,74.80
2019-02-18T10:24:21.551Z,74.60
2019-02-18T10:26:49.985Z,74.40
2019-02-18T10:29:30.404Z,74.40
2019-02-18T10:31:58.825Z,74.20
2019-02-18T10:34:27.242Z,74.20
2019-02-18T10:37:15.043Z,74.00
2019-02-18T10:39:43.592Z,73.90
2019-02-18T10:42:12.036Z,73.90
2019-02-18T10:44:40.475Z,74.00
2019-02-18T10:47:08.897Z,74.00
2019-02-18T10:49:37.496Z,74.00
2019-02-18T10:52:05.941Z,73.70
2019-02-18T10:54:34.394Z,73.40
2019-02-18T10:57:02.927Z,73.40
2019-02-18T10:59:31.447Z,73.40
2019-02-18T11:01:59.869Z,73.50
2019-02-18T11:04:28.695Z,73.40
2019-02-18T11:06:57.187Z,73.40
2019-02-18T11:09:25.644Z,73.40
2019-02-18T11:12:13.405Z,73.20
2019-02-18T11:14:43.355Z,73.10
2019-02-18T11:17:11.843Z,72.50
2019-02-18T11:19:40.296Z,72.60
2019-02-18T11:22:08.721Z,72.50
2019-02-18T11:24:44.834Z,72.50
2019-02-18T11:27:32.658Z,72.60
2019-02-18T11:30:01.169Z,72.70
2019-02-18T11:32:49.020Z,73.00
2019-02-18T11:35:17.502Z,72.90
2019-02-18T11:38:05.294Z,72.90
2019-02-18T11:40:34.296Z,72.90
2019-02-18T11:43:02.740Z,73.00
2019-02-18T11:45:50.597Z,73.00
2019-02-18T11:48:19.019Z,72.80
2019-02-18T11:51:06.819Z,72.50
2019-02-18T11:53:35.242Z,72.30
2019-02-18T11:56:03.700Z,72.00
2019-02-18T11:58:51.489Z,72.00
2019-02-18T12:01:19.994Z,71.70
2019-02-18T12:04:01.022Z,71.80
2019-02-18T12:06:29.544Z,71.90
2019-02-18T12:08:58.067Z,71.70
2019-02-18T12:11:45.832Z,71.60
2019-02-18T12:14:14.431Z,71.50
2019-02-18T12:16:42.850Z,71.40
2019-02-18T12:19:11.276Z,71.90
2019-02-18T12:21:59.067Z,70.70
2019-02-18T12:24:27.509Z,70.30
2019-02-18T12:26:56.024Z,70.20
2019-02-18T12:29:26.594Z,69.70
2019-02-18T12:32:13.947Z,69.80
2019-02-18T12:34:42.371Z,69.70
2019-02-18T12:37:10.812Z,70.40
2019-02-18T12:39:39.255Z,69.30
2019-02-18T12:42:27.108Z,68.70
2019-02-18T12:44:56.003Z,68.40
2019-02-18T12:47:24.460Z,68.30
2019-02-18T12:49:52.952Z,67.90
2019-02-18T12:52:21.469Z,67.40
2019-02-18T12:54:50.050Z,67.00
2019-02-18T12:57:18.638Z,66.70
2019-02-18T13:00:11.027Z,66.30
2019-02-18T13:02:51.719Z,66.30
2019-02-18T13:05:32.572Z,66.20
2019-02-18T13:08:02.816Z,66.20
2019-02-18T13:10:34.863Z,66.20
2019-02-18T13:13:01.646Z,65.30
2019-02-18T13:15:30.147Z,64.70
2019-02-18T13:17:58.671Z,64.30
2019-02-18T13:20:27.229Z,63.90
2019-02-18T13:22:55.751Z,63.30
2019-02-18T13:25:24.323Z,63.40
2019-02-18T13:27:52.778Z,63.10
2019-02-18T13:30:21.270Z,63.30
2019-02-18T13:32:49.898Z,62.80
2019-02-18T13:35:18.452Z,62.90
2019-02-18T13:38:06.324Z,62.90
2019-02-18T13:40:34.747Z,61.60
2019-02-18T13:43:03.190Z,60.90
2019-02-18T13:45:31.708Z,60.90
2019-02-18T13:48:00.220Z,62.10
2019-02-18T13:50:28.675Z,61.00
2019-02-18T13:52:57.243Z,61.00
2019-02-18T13:55:26.076Z,60.80
2019-02-18T13:57:54.538Z,60.40
2019-02-18T14:00:23.134Z,60.80
2019-02-18T14:02:51.651Z,60.60
2019-02-18T14:05:21.404Z,60.90
2019-02-18T14:08:09.278Z,59.50
2019-02-18T14:10:57.450Z,58.60
2019-02-18T14:13:25.932Z,56.10
2019-02-18T14:18:49.151Z,49.20
2019-02-18T14:21:36.947Z,46.40
2019-02-18T14:24:05.777Z,45.10
2019-02-18T14:26:34.277Z,43.60
2019-02-18T14:29:22.105Z,43.00
2019-02-18T14:32:02.826Z,40.80
2019-02-18T14:34:31.317Z,40.30
2019-02-18T14:36:59.851Z,39.40
2019-02-18T14:39:28.430Z,38.70
2019-02-18T14:41:57.055Z,37.50
2019-02-18T14:44:25.614Z,36.40
2019-02-18T14:46:54.072Z,36.10
2019-02-18T14:49:42.125Z,36.00
2019-02-18T14:52:10.687Z,35.80
2019-02-18T14:54:39.238Z,35.50
2019-02-18T14:57:07.668Z,35.70
2019-02-18T14:59:36.310Z,35.70
2019-02-18T15:02:04.833Z,36.00
2019-02-18T15:04:45.301Z,35.50
2019-02-18T15:07:13.845Z,35.00
2019-02-18T15:09:42.348Z,35.10
2019-02-18T15:12:12.489Z,35.70
2019-02-18T15:14:42.721Z,36.00
2019-02-18T15:17:11.309Z,36.50
2019-02-18T15:19:39.828Z,37.00
2019-02-18T15:22:27.598Z,37.00
2019-02-18T15:24:56.423Z,36.80
2019-02-18T15:27:24.994Z,37.10
2019-02-18T15:30:14.324Z,37.90
2019-02-18T15:32:42.818Z,38.40
2019-02-18T15:35:11.262Z,38.90
2019-02-18T15:37:39.772Z,39.40
2019-02-18T15:40:11.980Z,39.90
2019-02-18T15:42:42.547Z,40.50
2019-02-18T15:45:10.903Z,40.70
2019-02-18T15:47:39.415Z,41.00
2019-02-18T15:50:10.640Z,41.60
2019-02-18T15:52:39.163Z,42.00
2019-02-18T15:55:08.788Z,42.50
2019-02-18T15:57:37.292Z,42.70
2019-02-18T16:00:08.925Z,43.10
2019-02-18T16:02:37.422Z,43.30
2019-02-18T16:05:06.420Z,43.50
2019-02-18T16:07:34.988Z,43.70
2019-02-18T16:10:04.360Z,44.10
2019-02-18T16:12:32.817Z,44.70
2019-02-18T16:15:20.655Z,44.20
2019-02-18T16:17:49.187Z,44.30
2019-02-18T16:20:36.951Z,44.20
2019-02-18T16:23:05.482Z,44.30
2019-02-18T16:25:33.979Z,44.30
2019-02-18T16:28:22.475Z,44.60
2019-02-18T16:31:10.303Z,44.90
2019-02-18T16:33:38.844Z,45.20
2019-02-18T16:36:10.109Z,45.70
2019-02-18T16:38:38.843Z,46.10
2019-02-18T16:41:26.701Z,46.60
2019-02-18T16:44:14.541Z,46.80
2019-02-18T16:46:43.078Z,47.20
2019-02-18T16:49:11.902Z,47.70
2019-02-18T16:51:40.401Z,48.10
2019-02-18T16:54:09.053Z,48.50
2019-02-18T16:56:37.527Z,48.90
2019-02-18T16:59:05.974Z,49.10
2019-02-18T17:04:29.648Z,49.70
2019-02-18T17:06:58.224Z,50.10
2019-02-18T17:09:26.671Z,50.50
2019-02-18T17:11:55.134Z,50.90
2019-02-18T17:14:23.632Z,51.60
2019-02-18T17:16:52.094Z,51.40
2019-02-18T17:19:39.955Z,51.70
2019-02-18T17:22:08.450Z,52.00
2019-02-18T17:24:36.902Z,52.30
2019-02-18T17:27:05.370Z,52.40
2019-02-18T17:29:33.903Z,52.30
2019-02-18T17:34:57.294Z,52.80
2019-02-18T17:37:25.801Z,53.20
2019-02-18T17:39:54.305Z,53.70
2019-02-18T17:42:22.899Z,53.90
2019-02-18T17:44:51.391Z,54.20
2019-02-18T17:47:22.480Z,54.60
2019-02-18T17:49:50.991Z,54.70
2019-02-18T17:52:19.433Z,54.90
2019-02-18T17:55:08.767Z,55.10
2019-02-18T17:57:37.616Z,55.20
2019-02-18T18:00:09.219Z,55.50
2019-02-18T18:02:37.710Z,55.80
2019-02-18T18:05:07.805Z,55.90
2019-02-18T18:07:36.314Z,56.10
2019-02-18T18:10:24.147Z,56.30
2019-02-18T18:12:52.604Z,56.50
2019-02-18T18:15:40.434Z,56.80
2019-02-18T18:18:08.876Z,56.80
2019-02-18T18:20:37.603Z,57.10
2019-02-18T18:23:06.129Z,57.20
2019-02-18T18:25:34.658Z,57.40
2019-02-18T18:28:03.186Z,57.60
2019-02-18T18:30:31.617Z,58.00
2019-02-18T18:33:01.184Z,58.10
2019-02-18T18:35:49.021Z,58.20
2019-02-18T18:38:30.063Z,58.50
2019-02-18T18:40:58.512Z,58.60
2019-02-18T18:43:33.560Z,58.80
2019-02-18T18:45:57.108Z,59.00
2019-02-18T18:48:25.542Z,59.20
2019-02-18T18:50:53.992Z,59.40
2019-02-18T18:53:22.447Z,59.50
2019-02-18T18:55:50.949Z,59.70
2019-02-18T18:58:19.383Z,59.80
2019-02-18T19:00:48.014Z,59.90
2019-02-18T19:03:16.443Z,60.10
2019-02-18T19:05:44.971Z,60.50
2019-02-18T19:08:13.395Z,60.70
2019-02-18T19:10:41.847Z,60.90
2019-02-18T19:13:10.897Z,61.00
2019-02-18T19:15:39.897Z,61.20
2019-02-18T19:18:08.323Z,61.20
2019-02-18T19:20:36.848Z,61.30
2019-02-18T19:23:05.324Z,61.50
2019-02-18T19:25:33.780Z,61.50
2019-02-18T19:28:21.548Z,61.60
2019-02-18T19:30:50.006Z,61.50
2019-02-18T19:33:37.847Z,61.60
2019-02-18T19:36:18.857Z,61.70
2019-02-18T19:38:47.381Z,61.90
2019-02-18T19:41:35.226Z,62.10
2019-02-18T19:44:05.265Z,62.10
2019-02-18T19:46:34.267Z,62.30
2019-02-18T19:49:22.066Z,62.60
2019-02-18T19:51:50.601Z,62.60
2019-02-18T19:54:19.076Z,62.90
2019-02-18T19:56:47.891Z,63.10
2019-02-18T19:59:16.425Z,63.40
2019-02-18T20:01:44.842Z,63.60
2019-02-18T20:04:13.296Z,63.70
2019-02-18T20:06:54.169Z,64.00
2019-02-18T20:09:22.687Z,64.00
2019-02-18T20:12:10.444Z,64.30
2019-02-18T20:14:38.995Z,64.30
2019-02-18T20:17:07.452Z,64.40
2019-02-18T20:19:35.886Z,64.50
2019-02-18T20:22:24.053Z,64.60
2019-02-18T20:24:52.543Z,64.50
2019-02-18T20:27:21.561Z,64.70
2019-02-18T20:29:49.991Z,64.80
2019-02-18T20:32:18.851Z,64.90
2019-02-18T20:34:47.339Z,65.00
2019-02-18T20:37:15.789Z,65.00
2019-02-18T20:39:53.112Z,65.30
2019-02-18T20:42:21.817Z,65.40
2019-02-18T20:44:50.703Z,65.60
2019-02-18T20:47:21.520Z,65.70
2019-02-18T20:49:50.330Z,65.60
2019-02-18T20:52:18.863Z,65.70
2019-02-18T20:54:47.508Z,65.80
2019-02-18T20:57:16.378Z,65.80
2019-02-18T20:59:44.882Z,65.80
2019-02-18T21:02:13.489Z,65.80
2019-02-18T21:04:44.191Z,66.70
2019-02-18T21:07:31.970Z,65.80
2019-02-18T21:10:00.458Z,65.80
2019-02-18T21:12:29.416Z,66.00
2019-02-18T21:14:57.839Z,66.00
2019-02-18T21:17:26.303Z,66.20
2019-02-18T21:19:54.819Z,66.40
2019-02-18T21:22:23.259Z,66.50
2019-02-18T21:24:51.786Z,66.50
2019-02-18T21:27:20.687Z,66.70
2019-02-18T21:29:49.147Z,66.80
2019-02-18T21:32:36.903Z,67.00
2019-02-18T21:35:06.408Z,67.10
2019-02-18T21:37:34.958Z,67.40
2019-02-18T21:40:04.720Z,67.70
2019-02-18T21:42:33.254Z,67.90
2019-02-18T21:45:01.821Z,68.40
2019-02-18T21:47:49.725Z,68.60
2019-02-18T21:50:19.369Z,68.60
2019-02-18T21:53:07.273Z,68.80
2019-02-18T21:55:36.101Z,68.80
2019-02-18T21:58:23.903Z,69.70
2019-02-18T22:00:52.404Z,68.90
2019-02-18T22:03:40.250Z,69.10
2019-02-18T22:06:28.015Z,69.30
2019-02-18T22:08:56.472Z,69.40
2019-02-18T22:11:26.291Z,69.60
2019-02-18T22:13:54.807Z,69.70
2019-02-18T22:16:23.249Z,69.90
2019-02-18T22:18:51.752Z,70.10
2019-02-18T22:21:39.545Z,70.20
2019-02-18T22:24:07.990Z,70.40
2019-02-18T22:26:36.436Z,70.80
2019-02-18T22:29:04.860Z,70.80
2019-02-18T22:31:52.668Z,70.80
2019-02-18T22:34:21.165Z,71.00
2019-02-18T22:36:49.643Z,71.30
2019-02-18T22:39:18.103Z,71.40
2019-02-18T22:41:46.535Z,71.50
2019-02-18T22:44:15.100Z,71.40
2019-02-18T22:46:43.590Z,72.60
2019-02-18T22:49:12.127Z,72.80
2019-02-18T22:54:29.335Z,73.00
2019-02-18T22:56:57.765Z,73.10
2019-02-18T22:59:26.791Z,73.40
2019-02-18T23:02:15.342Z,73.60
2019-02-18T23:04:56.232Z,73.60
2019-02-18T23:07:24.645Z,73.80
2019-02-18T23:09:53.439Z,74.20
2019-02-18T23:12:41.244Z,74.40
2019-02-18T23:18:24.135Z,74.70
2019-02-18T23:21:05.239Z,75.10
2019-02-18T23:23:33.729Z,75.40
2019-02-18T23:26:02.530Z,76.00
2019-02-18T23:28:30.989Z,76.00
2019-02-18T23:30:59.486Z,76.40
2019-02-18T23:33:27.937Z,76.70
2019-02-18T23:35:56.431Z,77.10
2019-02-18T23:38:24.883Z,77.30
2019-02-18T23:41:12.644Z,77.50
2019-02-18T23:43:41.076Z,77.40
2019-02-18T23:46:09.482Z,77.80
2019-02-18T23:48:57.272Z,77.90
2019-02-18T23:51:45.031Z,78.10
2019-02-18T23:54:25.846Z,78.30
2019-02-18T23:56:54.265Z,78.70
2019-02-18T23:59:22.712Z,79.00
